• Join FlightAware (Why Join?)
  • Login
  • US Flag 
12:30PM EDT


 

Airport Tracker/Info


-or-


 

Live Flight TrackerFlight Track Log ✈ AWE1913 ✈ 12-Apr-2013 ✈ KPHL - MYNN / NAS

Flight Track Log - Related Links

Times and Time Zones

All times are in EDT time to prevent confusion due to time zone crossing. See the AWE1913 flight status page for this flight to view local times or setup timezone preferences in your user account.

Time Position Orientation Groundspeed Altitude Reporting Facility
EDT Latitude Longitude Course Direction KTS MPH feet Rate Location/Type
11:11AM 39.8833 -75.2167 191° South 154 177 1,100  Level Philadelphia TRACON
11:11AM 39.8764 -75.2064 131° Southeast 153 176 1,700 1,680 Climbing FAA TRACON SMA TRACON (SMA)
11:11AM 39.8728 -75.1911 107° East 161 185 2,100 1,020 Climbing FAA TRACON SMA TRACON (SMA)
11:12AM 39.8664 -75.1672 109° East 184 212 2,400 900 Climbing FAA TRACON SMA TRACON (SMA)
11:12AM 39.8597 -75.1436 110° East 207 238 2,700 900 Climbing FAA TRACON SMA TRACON (SMA)
11:12AM 39.8531 -75.1183 109° East 245 282 3,000 1,020 Climbing FAA TRACON SMA TRACON (SMA)
11:13AM 39.5120 -75.3143 189° South  Level FlightAware Approximate
11:13AM 39.8456 -75.0903 109° East 271 312 3,400  Level FAA TRACON SMA TRACON (SMA)
11:13AM 39.8319 -75.0556 117° Southeast 279 321 4,400 2,700 Climbing FAA TRACON SMA TRACON (SMA)
11:13AM 39.8136 -75.0394 146° Southeast 268 308 5,200 2,520 Climbing FAA TRACON SMA TRACON (SMA)
11:14AM 39.3913 -75.3380 185° South  Level FlightAware Approximate
11:14AM 39.7919 -75.0383 178° South 245 282 6,100  Level FAA TRACON SMA TRACON (SMA)
11:14AM 39.7692 -75.0522 205° Southwest 245 282 7,100 2,820 Climbing FAA TRACON SMA TRACON (SMA)
11:14AM 39.7522 -75.0694 218° Southwest 241 277 8,000 2,700 Climbing FAA TRACON SMA TRACON (SMA)
11:15AM 39.2696 -75.3546 194° South  Level FlightAware Approximate
11:15AM 39.7367 -75.0875 222° Southwest 241 277 8,900  Level FAA TRACON SMA TRACON (SMA)
11:15AM 39.7169 -75.1103 222° Southwest 245 282 9,900 2,400 Climbing FAA TRACON SMA TRACON (SMA)
11:15AM 39.7006 -75.1272 219° Southwest 248 285 10,500 1,620 Climbing FAA TRACON SMA TRACON (SMA)
11:16AM 39.1491 -75.3794 191° South  Level FlightAware Approximate
11:16AM 39.6822 -75.1453 217° Southwest 256 295 11,000  Level FAA TRACON SMA TRACON (SMA)
11:16AM 39.6581 -75.1703 219° Southwest 296 341 11,300 900 Climbing FAA TRACON SMA TRACON (SMA)
11:16AM 39.6372 -75.1922 219° Southwest 312 359 11,600 1,020 Climbing FAA TRACON SMA TRACON (SMA)
11:17AM 39.6156 -75.2144 218° Southwest 323 372 12,000 1,500 Climbing FAA TRACON SMA TRACON (SMA)
11:17AM 39.5928 -75.2369 217° Southwest 332 382 12,600 2,220 Climbing FAA TRACON SMA TRACON (SMA)
11:17AM 39.5642 -75.2653 217° Southwest 336 387 13,500 2,700 Climbing FAA TRACON SMA TRACON (SMA)
11:18AM 39.5414 -75.2883 218° Southwest 336 387 14,400 2,400 Climbing FAA TRACON SMA TRACON (SMA)
11:18AM 39.5197 -75.3108 219° Southwest 333 383 15,100 2,220 Climbing FAA TRACON SMA TRACON (SMA)
11:18AM 39.4872 -75.3322 207° Southwest 338 389 15,900 1,320 Climbing FAA TRACON SMA TRACON (SMA)
11:19AM 39.4569 -75.3367 186° South 362 417 16,000 120 Climbing FAA TRACON SMA TRACON (SMA)
11:19AM 39.4264 -75.3394 184° South 354 407 16,000  Level FAA TRACON SMA TRACON (SMA)
11:19AM 39.3889 -75.3464 188° South 356 410 16,000  Level FAA TRACON SMA TRACON (SMA)
11:20AM 39.3581 -75.3533 190° South 357 411 16,000 120 Level FAA TRACON SMA TRACON (SMA)
11:20AM 39.3289 -75.3575 186° South 357 411 16,100 600 Climbing FAA TRACON SMA TRACON (SMA)
11:20AM 39.2897 -75.3667 190° South 361 415 16,400 900 Climbing FAA TRACON SMA TRACON (SMA)
11:21AM 39.2589 -75.3717 187° South 362 417 16,700 600 Climbing FAA TRACON SMA TRACON (SMA)
11:21AM 39.2433 -75.3742 187° South 362 417 16,800 120 Climbing FAA TRACON SMA TRACON (SMA)
11:21AM 39.2433 -75.3742 38° Northeast 362 417 16,800 60 Level FAA TRACON SMA TRACON (SMA)
11:22AM 39.1217 -75.3936 187° South 368 423 16,900 540 Climbing Washington Center
11:23AM 39.0214 -75.4100 187° South 368 423 17,800 1,440 Climbing Washington Center
11:24AM 38.9256 -75.4528 199° South 368 423 19,800 1,800 Climbing Washington Center
11:25AM 38.8297 -75.5011 201° Southwest 368 423 21,400 1,500 Climbing Washington Center
11:26AM 38.7339 -75.5492 201° Southwest 378 435 22,900 1,320 Climbing Washington Center
11:27AM 38.6339 -75.5944 199° South 378 435 24,100 1,020 Climbing Washington Center
11:28AM 38.5317 -75.6475 202° Southwest 390 449 25,000 840 Climbing Washington Center
11:29AM 38.4233 -75.6978 200° South 401 461 25,800 900 Climbing Washington Center
11:30AM 38.3147 -75.7506 201° Southwest 412 474 26,900 900 Climbing Washington Center
11:31AM 38.2125 -75.7953 199° South 430 495 27,700 960 Climbing Washington Center
11:32AM 38.0978 -75.8478 200° South 430 495 28,900 1,200 Climbing Washington Center
11:33AM 37.9892 -75.9025 202° Southwest 430 495 30,100 1,140 Climbing Washington Center
11:34AM 37.8806 -75.9547 201° Southwest 430 495 31,200 1,080 Climbing Washington Center
11:35AM 37.7636 -76.0172 203° Southwest 430 495 32,300 1,080 Climbing Washington Center
11:36AM 37.6572 -76.0667 200° South 425 489 33,400 840 Climbing Washington Center
11:37AM 37.5506 -76.1156 200° South 414 476 34,000 300 Climbing Washington Center
11:38AM 37.4419 -76.1594 198° South 414 476 34,000  Level Washington Center
11:39AM 37.3372 -76.2083 200° South 414 476 34,000  Level Washington Center
11:40AM 37.2306 -76.2597 201° Southwest 414 476 34,000  Level Washington Center
11:41AM 37.1261 -76.3056 199° South 409 471 34,000  Level Washington Center
11:42AM 37.0194 -76.3567 201° Southwest 409 471 34,000  Level Washington Center
11:43AM 36.9147 -76.4050 200° South 409 471 34,000  Level Washington Center
11:44AM 36.8081 -76.4531 200° South 409 471 34,000  Level Washington Center
11:45AM 36.7222 -76.4936 201° Southwest 409 471 34,000  Level Washington Center
11:46AM 36.6069 -76.5467 200° South 409 471 34,000  Level Washington Center
11:47AM 36.5022 -76.5972 201° Southwest 409 471 34,000  Level Washington Center
11:48AM 36.3933 -76.6447 199° South 409 471 34,000  Level Washington Center
11:49AM 36.2844 -76.6947 200° South 409 471 34,000  Level Washington Center
11:50AM 36.1778 -76.7397 199° South 409 471 34,000  Level Washington Center
11:51AM 36.0708 -76.7894 201° Southwest 409 471 34,000  Level Washington Center
11:52AM 35.9639 -76.8392 201° Southwest 409 471 34,000  Level Washington Center
11:53AM 35.8528 -76.8861 199° South 409 471 34,000  Level Washington Center
11:54AM 35.7439 -76.9306 198° South 409 471 34,000  Level Washington Center
11:55AM 35.6367 -76.9822 201° Southwest 409 471 34,000  Level Washington Center
11:56AM 35.5319 -77.0289 200° South 409 471 34,000  Level Washington Center
11:57AM 35.4228 -77.0781 200° South 409 471 34,000  Level Washington Center
11:58AM 35.3117 -77.1244 199° South 414 476 34,000  Level Washington Center
11:59AM 35.2047 -77.1731 200° South 414 476 34,000  Level Washington Center
12:00PM 35.0975 -77.2219 200° South 414 476 34,000  Level Washington Center
12:01PM 34.9883 -77.2703 200° South 413 475 34,000  Level Washington Center
12:02PM 34.8772 -77.3161 199° South 418 481 34,000  Level Washington Center
12:03PM 34.7594 -77.3717 201° Southwest 418 481 34,000  Level Washington Center
12:04PM 34.6503 -77.4175 199° South 418 481 34,000  Level Washington Center
12:05PM 34.5369 -77.4603 197° South 418 481 34,000  Level Washington Center
12:06PM 34.4219 -77.4853 190° South 418 481 34,000  Level Washington Center
12:10PM 33.9858 -77.5933 192° South 439 505 34,000  Level Jacksonville Center
12:11PM 33.8708 -77.6328 196° South 444 511 34,000  Level Jacksonville Center
12:12PM 33.7575 -77.6694 195° South 431 496 34,000 -60 Level Jacksonville Center
12:13PM 33.6278 -77.7094 194° South 431 496 33,900  Descending Jacksonville Center
12:14PM 33.5122 -77.7436 194° South 431 496 34,000  Climbing Jacksonville Center
12:15PM 33.3967 -77.7778 194° South 431 496 34,000  Level Jacksonville Center
12:16PM 33.2767 -77.8022 190° South 431 496 34,000 -60 Level Jacksonville Center
12:17PM 33.1533 -77.7942 177° South 431 496 33,900 -60 Descending Jacksonville Center
12:18PM 33.0278 -77.7867 177° South 442 509 33,900  Level Jacksonville Center
12:19PM 32.9075 -77.8033 187° South 442 509 34,000  Climbing Jacksonville Center
12:20PM 32.7875 -77.8322 191° South 442 509 34,000  Level Jacksonville Center
12:21PM 32.6656 -77.8589 190° South 442 509 34,000  Level Jacksonville Center
12:22PM 32.5497 -77.8850 191° South 442 509 34,000  Level Jacksonville Center
12:23PM 32.4294 -77.9064 189° South 447 514 34,000  Level Jacksonville Center
12:24PM 32.3114 -77.9300 190° South 447 514 34,000  Level Jacksonville Center
12:25PM 32.1917 -77.9611 192° South 447 514 34,000  Level Jacksonville Center
12:26PM 32.0739 -77.9919 193° South 447 514 34,000  Level Jacksonville Center
12:27PM 31.9556 -78.0128 188° South 447 514 34,000 -60 Level Jacksonville Center
12:28PM 31.8378 -78.0436 193° South 447 514 33,900  Descending Jacksonville Center
12:29PM 31.7219 -78.0692 191° South 431 496 34,000  Climbing Jacksonville Center
12:30PM 31.6058 -78.0900 189° South 437 503 34,000  Level Jacksonville Center
12:31PM 31.4878 -78.1156 190° South 430 495 34,000  Level Jacksonville Center
12:32PM 31.3739 -78.1383 190° South 430 495 34,000 -60 Level Jacksonville Center
12:33PM 31.2581 -78.1636 191° South 428 493 33,900 -60 Descending Jacksonville Center
12:34PM 31.1422 -78.1936 192° South 424 488 33,900  Level Jacksonville Center
12:35PM 31.0283 -78.2189 191° South 424 488 34,000  Climbing Jacksonville Center
12:36PM 30.9061 -78.2442 190° South 438 504 34,000  Level Jacksonville Center
12:37PM 30.7944 -78.2714 192° South 427 491 34,000  Level Jacksonville Center
12:38PM 30.6764 -78.2967 190° South 432 497 34,000  Level Jacksonville Center
12:39PM 30.5561 -78.3192 189° South 432 497 34,000  Level Jacksonville Center
12:40PM 30.3683 -78.3533 189° South 433 498 34,000  Level Miami Center
12:41PM 30.2475 -78.3636 184° South 433 498 34,000  Level Miami Center
12:42PM 30.1225 -78.3428 172° South 432 497 34,000  Level Miami Center
12:43PM 30.0164 -78.3269 173° South 439 505 34,000  Level Miami Center
12:44PM 29.8936 -78.3014 170° South 453 521 34,000  Level Miami Center
12:45PM 29.7731 -78.2783 171° South 448 516 34,000  Level Miami Center
12:46PM 29.6503 -78.2503 169° South 447 514 34,000  Level Miami Center
12:47PM 29.5294 -78.2272 171° South 447 514 34,000  Level Miami Center
12:48PM 29.4044 -78.2019 170° South 447 514 34,000  Level Miami Center
12:49PM 29.2900 -78.1814 171° South 446 513 34,000  Level Miami Center
12:50PM 29.1650 -78.1539 169° South 446 513 34,000  Level Miami Center
12:51PM 29.0381 -78.1286 170° South 451 519 34,000  Level Miami Center
12:52PM 28.9172 -78.1058 171° South 451 519 34,000  Level Miami Center
12:53PM 28.7964 -78.0808 170° South 451 519 34,000  Level Miami Center
12:54PM 28.6672 -78.0558 170° South 456 525 34,000 -60 Level Miami Center
12:55PM 28.5422 -78.0308 170° South 454 522 33,900 -60 Descending Miami Center
12:56PM 28.4192 -78.0083 171° South 454 522 33,900  Level Miami Center
12:57PM 28.2942 -77.9836 170° South 448 516 34,000  Climbing Miami Center
12:58PM 28.1711 -77.9611 171° South 454 522 34,000  Level Miami Center
12:59PM 28.0439 -77.9339 169° South 463 533 34,000  Level Miami Center
01:00PM 27.9167 -77.9117 171° South 465 535 34,000  Level Miami Center
01:01PM 27.7917 -77.8892 171° South 465 535 34,000  Level Miami Center
01:02PM 27.6664 -77.8647 170° South 465 535 34,000  Level Miami Center
01:03PM 27.5414 -77.8378 169° South 470 541 34,000  Level Miami Center
01:04PM 27.4161 -77.8133 170° South 459 528 34,000  Level Miami Center
01:05PM 27.2953 -77.7914 171° South 454 522 34,000  Level Miami Center
01:06PM 27.1700 -77.7694 171° South 449 517 34,000  Level Miami Center
01:07PM 27.0450 -77.7403 168° South 449 517 34,000  Level Miami Center
01:08PM 26.9156 -77.7139 170° South 461 531 34,000 -300 Level Miami Center
01:09PM 26.7881 -77.6967 173° South 466 536 33,500 -2,040 Descending Miami Center
01:10PM 26.6608 -77.6678 169° South 466 536 30,000 -3,480 Descending Miami Center
01:11PM 26.5294 -77.6436 171° South 468 539 26,600 -4,020 Descending Miami Center
01:12PM 26.4000 -77.6219 171° South 473 544 22,000 -3,600 Descending Miami Center
01:13PM 26.2728 -77.5981 170° South 473 544 19,400 -2,940 Descending Miami Center
01:14PM 26.1475 -77.5764 171° South 462 532 16,200 -2,700 Descending Miami Center
01:15PM 26.0325 -77.5525 169° South 448 516 14,100 -1,620 Descending Miami Center
01:16PM 25.9158 -77.5311 171° South 418 481 13,000 -600 Descending Miami Center
01:17PM 25.8258 -77.5144 171° South 370 426 13,000  Level Miami Center
01:18PM 25.7444 -77.5000 171° South 327 376 13,000  Level Miami Center
01:19PM 25.6589 -77.4836 170° South 314 361 13,000 -720 Level Miami Center
01:20PM 25.5794 -77.4925 186° South 303 349 11,600 -1,440 Descending Miami Center
01:22PM 25.4617 -77.4690 170° South  Level FlightAware Approximate